sensor_id;sensor_type;location;lat;lon;timestamp;temperature;humidity
22503;DHT22;11418;48.118;9.992;2023-04-16T00:01:00;5.70;99.90
22503;DHT22;11418;48.118;9.992;2023-04-16T00:05:00;5.60;99.90
22503;DHT22;11418;48.118;9.992;2023-04-16T00:09:00;5.50;99.90
22503;DHT22;11418;48.118;9.992;2023-04-16T00:13:01;5.40;99.90
22503;DHT22;11418;48.118;9.992;2023-04-16T00:17:01;5.50;99.90
22503;DHT22;11418;48.118;9.992;2023-04-16T00:21:02;5.40;99.90
22503;DHT22;11418;48.118;9.992;2023-04-16T00:25:03;5.40;99.90
22503;DHT22;11418;48.118;9.992;2023-04-16T00:29:03;5.30;99.90
22503;DHT22;11418;48.118;9.992;2023-04-16T00:33:04;5.60;99.90
22503;DHT22;11418;48.118;9.992;2023-04-16T00:37:04;5.80;99.90
22503;DHT22;11418;48.118;9.992;2023-04-16T00:41:05;6.00;99.90
22503;DHT22;11418;48.118;9.992;2023-04-16T00:45:05;5.90;99.90
22503;DHT22;11418;48.118;9.992;2023-04-16T00:49:06;5.60;99.90
22503;DHT22;11418;48.118;9.992;2023-04-16T00:53:06;5.60;99.90
22503;DHT22;11418;48.118;9.992;2023-04-16T00:57:07;5.60;99.90
22503;DHT22;11418;48.118;9.992;2023-04-16T01:01:08;5.50;99.90
22503;DHT22;11418;48.118;9.992;2023-04-16T01:05:08;5.40;99.90
22503;DHT22;11418;48.118;9.992;2023-04-16T01:09:09;5.50;99.90
22503;DHT22;11418;48.118;9.992;2023-04-16T01:13:10;5.50;99.90
22503;DHT22;11418;48.118;9.992;2023-04-16T01:17:11;5.50;99.90
22503;DHT22;11418;48.118;9.992;2023-04-16T01:21:11;5.40;99.90
22503;DHT22;11418;48.118;9.992;2023-04-16T01:25:12;5.30;99.90
22503;DHT22;11418;48.118;9.992;2023-04-16T01:29:13;5.50;99.90
22503;DHT22;11418;48.118;9.992;2023-04-16T01:33:13;5.70;99.90
22503;DHT22;11418;48.118;9.992;2023-04-16T01:37:14;5.60;99.90
22503;DHT22;11418;48.118;9.992;2023-04-16T01:41:15;5.60;99.90
22503;DHT22;11418;48.118;9.992;2023-04-16T01:45:15;5.50;99.90
22503;DHT22;11418;48.118;9.992;2023-04-16T01:49:16;5.60;99.90
22503;DHT22;11418;48.118;9.992;2023-04-16T01:53:16;5.80;99.90
22503;DHT22;11418;48.118;9.992;2023-04-16T01:57:17;5.90;99.90
22503;DHT22;11418;48.118;9.992;2023-04-16T02:01:17;5.70;99.90
22503;DHT22;11418;48.118;9.992;2023-04-16T02:05:18;5.60;99.90
22503;DHT22;11418;48.118;9.992;2023-04-16T02:09:18;5.70;99.90
22503;DHT22;11418;48.118;9.992;2023-04-16T02:13:19;5.90;99.90
22503;DHT22;11418;48.118;9.992;2023-04-16T02:17:19;5.80;99.90
22503;DHT22;11418;48.118;9.992;2023-04-16T02:21:20;5.70;99.90
22503;DHT22;11418;48.118;9.992;2023-04-16T02:25:20;5.60;99.90
22503;DHT22;11418;48.118;9.992;2023-04-16T02:29:22;5.70;99.90
22503;DHT22;11418;48.118;9.992;2023-04-16T02:33:22;5.80;99.90
22503;DHT22;11418;48.118;9.992;2023-04-16T02:37:25;5.90;99.90
22503;DHT22;11418;48.118;9.992;2023-04-16T02:41:25;5.70;99.90
22503;DHT22;11418;48.118;9.992;2023-04-16T02:45:26;5.60;99.90
22503;DHT22;11418;48.118;9.992;2023-04-16T02:49:27;5.70;99.90
22503;DHT22;11418;48.118;9.992;2023-04-16T02:53:27;5.90;99.90
22503;DHT22;11418;48.118;9.992;2023-04-16T02:57:28;5.90;99.90
22503;DHT22;11418;48.118;9.992;2023-04-16T03:01:28;5.80;99.90
22503;DHT22;11418;48.118;9.992;2023-04-16T03:05:29;5.90;99.90
22503;DHT22;11418;48.118;9.992;2023-04-16T03:09:29;5.60;99.90
22503;DHT22;11418;48.118;9.992;2023-04-16T03:13:30;5.70;99.90
22503;DHT22;11418;48.118;9.992;2023-04-16T03:17:31;5.70;99.90
22503;DHT22;11418;48.118;9.992;2023-04-16T03:21:31;5.70;99.90
22503;DHT22;11418;48.118;9.992;2023-04-16T03:25:32;5.80;99.90
22503;DHT22;11418;48.118;9.992;2023-04-16T03:29:35;5.90;99.90
22503;DHT22;11418;48.118;9.992;2023-04-16T03:33:35;5.90;99.90
22503;DHT22;11418;48.118;9.992;2023-04-16T03:37:36;5.90;99.90
22503;DHT22;11418;48.118;9.992;2023-04-16T03:41:36;5.90;99.90
22503;DHT22;11418;48.118;9.992;2023-04-16T03:45:42;6.00;99.90
22503;DHT22;11418;48.118;9.992;2023-04-16T03:49:42;6.10;99.90
22503;DHT22;11418;48.118;9.992;2023-04-16T03:53:43;6.10;99.90
22503;DHT22;11418;48.118;9.992;2023-04-16T03:57:43;6.30;99.90
22503;DHT22;11418;48.118;9.992;2023-04-16T04:01:44;6.30;99.90
22503;DHT22;11418;48.118;9.992;2023-04-16T04:05:44;6.40;99.90
22503;DHT22;11418;48.118;9.992;2023-04-16T04:09:45;6.20;99.90
22503;DHT22;11418;48.118;9.992;2023-04-16T04:13:45;6.30;99.90
22503;DHT22;11418;48.118;9.992;2023-04-16T04:17:46;6.20;99.90
22503;DHT22;11418;48.118;9.992;2023-04-16T04:21:46;6.10;99.90
22503;DHT22;11418;48.118;9.992;2023-04-16T04:25:46;6.10;99.90
22503;DHT22;11418;48.118;9.992;2023-04-16T04:29:47;6.00;99.90
22503;DHT22;11418;48.118;9.992;2023-04-16T04:33:47;6.10;99.90
22503;DHT22;11418;48.118;9.992;2023-04-16T04:37:48;6.10;99.90
22503;DHT22;11418;48.118;9.992;2023-04-16T04:41:48;6.20;99.90
22503;DHT22;11418;48.118;9.992;2023-04-16T04:45:49;6.20;99.90
22503;DHT22;11418;48.118;9.992;2023-04-16T04:49:49;6.20;99.90
22503;DHT22;11418;48.118;9.992;2023-04-16T04:53:50;6.20;99.90
22503;DHT22;11418;48.118;9.992;2023-04-16T04:57:50;6.40;99.90
22503;DHT22;11418;48.118;9.992;2023-04-16T05:01:50;6.40;99.90
22503;DHT22;11418;48.118;9.992;2023-04-16T05:05:51;6.50;99.90
22503;DHT22;11418;48.118;9.992;2023-04-16T05:09:51;6.50;99.90
22503;DHT22;11418;48.118;9.992;2023-04-16T05:13:52;6.30;99.90
22503;DHT22;11418;48.118;9.992;2023-04-16T05:17:53;6.50;99.90
22503;DHT22;11418;48.118;9.992;2023-04-16T05:21:55;6.70;99.90
22503;DHT22;11418;48.118;9.992;2023-04-16T05:25:55;6.60;99.90
22503;DHT22;11418;48.118;9.992;2023-04-16T05:29:56;6.80;99.90
22503;DHT22;11418;48.118;9.992;2023-04-16T05:33:56;6.60;99.90
22503;DHT22;11418;48.118;9.992;2023-04-16T05:37:57;6.70;99.90
22503;DHT22;11418;48.118;9.992;2023-04-16T05:41:57;6.50;99.90
22503;DHT22;11418;48.118;9.992;2023-04-16T05:45:57;6.60;99.90
22503;DHT22;11418;48.118;9.992;2023-04-16T05:49:58;6.60;99.90
22503;DHT22;11418;48.118;9.992;2023-04-16T05:53:58;6.70;99.90
22503;DHT22;11418;48.118;9.992;2023-04-16T05:57:59;6.90;99.90
22503;DHT22;11418;48.118;9.992;2023-04-16T06:01:59;6.70;99.90
22503;DHT22;11418;48.118;9.992;2023-04-16T06:06:00;7.00;99.90
22503;DHT22;11418;48.118;9.992;2023-04-16T06:10:00;7.00;99.90
22503;DHT22;11418;48.118;9.992;2023-04-16T06:14:01;7.10;99.90
22503;DHT22;11418;48.118;9.992;2023-04-16T06:18:01;7.20;99.90
22503;DHT22;11418;48.118;9.992;2023-04-16T06:22:01;7.10;99.90
22503;DHT22;11418;48.118;9.992;2023-04-16T06:26:04;7.20;99.90
22503;DHT22;11418;48.118;9.992;2023-04-16T06:30:05;7.20;99.90
22503;DHT22;11418;48.118;9.992;2023-04-16T06:34:10;7.40;99.90
22503;DHT22;11418;48.118;9.992;2023-04-16T06:38:10;7.30;99.90
22503;DHT22;11418;48.118;9.992;2023-04-16T06:42:11;7.30;99.90
22503;DHT22;11418;48.118;9.992;2023-04-16T06:46:11;7.30;99.90
22503;DHT22;11418;48.118;9.992;2023-04-16T06:50:12;7.30;99.90
22503;DHT22;11418;48.118;9.992;2023-04-16T06:54:12;7.40;99.90
22503;DHT22;11418;48.118;9.992;2023-04-16T06:58:13;7.50;99.90
22503;DHT22;11418;48.118;9.992;2023-04-16T07:02:13;7.60;99.90
22503;DHT22;11418;48.118;9.992;2023-04-16T07:06:14;7.60;99.90
22503;DHT22;11418;48.118;9.992;2023-04-16T07:10:14;7.80;99.90
22503;DHT22;11418;48.118;9.992;2023-04-16T07:14:15;7.80;99.90
22503;DHT22;11418;48.118;9.992;2023-04-16T07:18:15;8.00;99.90
22503;DHT22;11418;48.118;9.992;2023-04-16T07:22:15;8.30;99.90
22503;DHT22;11418;48.118;9.992;2023-04-16T07:26:16;8.20;99.90
22503;DHT22;11418;48.118;9.992;2023-04-16T07:30:16;8.10;99.90
22503;DHT22;11418;48.118;9.992;2023-04-16T07:34:17;8.20;99.90
22503;DHT22;11418;48.118;9.992;2023-04-16T07:38:17;8.10;99.90
22503;DHT22;11418;48.118;9.992;2023-04-16T07:42:18;8.30;99.90
22503;DHT22;11418;48.118;9.992;2023-04-16T07:46:18;8.50;99.90
22503;DHT22;11418;48.118;9.992;2023-04-16T07:50:19;8.60;99.90
22503;DHT22;11418;48.118;9.992;2023-04-16T07:54:19;8.50;99.90
22503;DHT22;11418;48.118;9.992;2023-04-16T07:58:20;8.50;99.90
22503;DHT22;11418;48.118;9.992;2023-04-16T08:02:20;8.60;99.90
22503;DHT22;11418;48.118;9.992;2023-04-16T08:06:21;8.90;99.90
22503;DHT22;11418;48.118;9.992;2023-04-16T08:10:21;9.00;99.90
22503;DHT22;11418;48.118;9.992;2023-04-16T08:14:22;9.10;99.90
22503;DHT22;11418;48.118;9.992;2023-04-16T08:18:22;9.10;99.90
22503;DHT22;11418;48.118;9.992;2023-04-16T08:22:23;9.20;99.90
22503;DHT22;11418;48.118;9.992;2023-04-16T08:26:23;9.00;99.90
22503;DHT22;11418;48.118;9.992;2023-04-16T08:30:24;8.90;99.90
22503;DHT22;11418;48.118;9.992;2023-04-16T08:43:12;9.10;99.90
22503;DHT22;11418;48.118;9.992;2023-04-16T08:47:24;9.00;99.90
22503;DHT22;11418;48.118;9.992;2023-04-16T08:51:32;8.80;99.90
22503;DHT22;11418;48.118;9.992;2023-04-16T08:55:36;8.80;99.90
22503;DHT22;11418;48.118;9.992;2023-04-16T08:59:37;8.80;99.90
22503;DHT22;11418;48.118;9.992;2023-04-16T09:03:39;9.10;99.90
22503;DHT22;11418;48.118;9.992;2023-04-16T09:07:40;9.20;99.90
22503;DHT22;11418;48.118;9.992;2023-04-16T09:11:41;9.40;99.90
22503;DHT22;11418;48.118;9.992;2023-04-16T09:15:41;9.20;99.90
22503;DHT22;11418;48.118;9.992;2023-04-16T09:19:43;9.50;99.90
22503;DHT22;11418;48.118;9.992;2023-04-16T09:23:44;9.40;99.90
22503;DHT22;11418;48.118;9.992;2023-04-16T09:27:47;9.40;99.90
22503;DHT22;11418;48.118;9.992;2023-04-16T09:32:01;9.80;99.90
22503;DHT22;11418;48.118;9.992;2023-04-16T09:36:02;9.90;99.90
22503;DHT22;11418;48.118;9.992;2023-04-16T09:40:03;9.60;99.90
22503;DHT22;11418;48.118;9.992;2023-04-16T09:44:03;9.50;99.90
22503;DHT22;11418;48.118;9.992;2023-04-16T09:48:04;9.70;99.90
22503;DHT22;11418;48.118;9.992;2023-04-16T09:52:08;9.80;99.90
22503;DHT22;11418;48.118;9.992;2023-04-16T09:56:08;9.70;99.90
22503;DHT22;11418;48.118;9.992;2023-04-16T10:00:10;9.70;99.90
22503;DHT22;11418;48.118;9.992;2023-04-16T10:04:11;9.60;99.90
22503;DHT22;11418;48.118;9.992;2023-04-16T10:08:12;9.50;99.90
22503;DHT22;11418;48.118;9.992;2023-04-16T10:12:13;9.40;99.90
22503;DHT22;11418;48.118;9.992;2023-04-16T10:16:14;9.40;99.90
22503;DHT22;11418;48.118;9.992;2023-04-16T10:20:14;9.50;99.90
22503;DHT22;11418;48.118;9.992;2023-04-16T10:24:15;9.50;99.90
22503;DHT22;11418;48.118;9.992;2023-04-16T10:28:17;9.40;99.90
22503;DHT22;11418;48.118;9.992;2023-04-16T10:32:17;9.40;99.90
22503;DHT22;11418;48.118;9.992;2023-04-16T10:36:24;9.30;99.90
22503;DHT22;11418;48.118;9.992;2023-04-16T10:40:26;9.10;99.90
22503;DHT22;11418;48.118;9.992;2023-04-16T10:44:26;9.10;99.90
22503;DHT22;11418;48.118;9.992;2023-04-16T10:48:30;9.30;99.90
22503;DHT22;11418;48.118;9.992;2023-04-16T10:52:30;9.30;99.90
22503;DHT22;11418;48.118;9.992;2023-04-16T10:56:31;9.20;99.90
22503;DHT22;11418;48.118;9.992;2023-04-16T11:00:34;9.20;99.90
22503;DHT22;11418;48.118;9.992;2023-04-16T11:04:47;9.50;99.90
22503;DHT22;11418;48.118;9.992;2023-04-16T11:08:49;9.40;99.90
22503;DHT22;11418;48.118;9.992;2023-04-16T11:12:50;9.30;99.90
22503;DHT22;11418;48.118;9.992;2023-04-16T11:16:51;9.10;99.90
22503;DHT22;11418;48.118;9.992;2023-04-16T11:20:51;9.00;99.90
22503;DHT22;11418;48.118;9.992;2023-04-16T11:24:53;9.20;99.90
22503;DHT22;11418;48.118;9.992;2023-04-16T11:28:54;8.90;99.90
22503;DHT22;11418;48.118;9.992;2023-04-16T11:33:17;8.90;99.90
22503;DHT22;11418;48.118;9.992;2023-04-16T11:37:29;8.90;99.90
22503;DHT22;11418;48.118;9.992;2023-04-16T11:41:31;9.30;99.90
22503;DHT22;11418;48.118;9.992;2023-04-16T11:45:31;9.40;99.90
22503;DHT22;11418;48.118;9.992;2023-04-16T11:49:32;9.10;99.90
22503;DHT22;11418;48.118;9.992;2023-04-16T11:53:32;9.00;99.90
22503;DHT22;11418;48.118;9.992;2023-04-16T11:57:33;8.90;99.90
22503;DHT22;11418;48.118;9.992;2023-04-16T12:01:34;9.00;99.90
22503;DHT22;11418;48.118;9.992;2023-04-16T12:09:36;9.40;99.90
22503;DHT22;11418;48.118;9.992;2023-04-16T12:13:37;9.50;99.90
22503;DHT22;11418;48.118;9.992;2023-04-16T12:17:39;9.40;99.90
22503;DHT22;11418;48.118;9.992;2023-04-16T12:21:40;9.50;99.90
22503;DHT22;11418;48.118;9.992;2023-04-16T12:25:41;9.20;99.90
22503;DHT22;11418;48.118;9.992;2023-04-16T12:29:44;9.30;99.90
22503;DHT22;11418;48.118;9.992;2023-04-16T12:34:01;9.60;99.90
22503;DHT22;11418;48.118;9.992;2023-04-16T12:38:02;9.50;99.90
22503;DHT22;11418;48.118;9.992;2023-04-16T12:42:03;9.20;99.90
22503;DHT22;11418;48.118;9.992;2023-04-16T12:46:07;9.10;99.90
22503;DHT22;11418;48.118;9.992;2023-04-16T12:50:08;8.90;99.90
22503;DHT22;11418;48.118;9.992;2023-04-16T12:54:08;9.00;99.90
22503;DHT22;11418;48.118;9.992;2023-04-16T12:58:09;9.10;99.90
22503;DHT22;11418;48.118;9.992;2023-04-16T13:02:09;9.10;99.90
22503;DHT22;11418;48.118;9.992;2023-04-16T13:06:10;9.00;99.90
22503;DHT22;11418;48.118;9.992;2023-04-16T13:10:11;9.10;99.90
22503;DHT22;11418;48.118;9.992;2023-04-16T13:14:12;9.00;99.90
22503;DHT22;11418;48.118;9.992;2023-04-16T13:18:12;9.20;99.90
22503;DHT22;11418;48.118;9.992;2023-04-16T13:22:13;8.80;99.90
22503;DHT22;11418;48.118;9.992;2023-04-16T13:26:13;8.70;99.90
22503;DHT22;11418;48.118;9.992;2023-04-16T13:30:15;8.80;99.90
22503;DHT22;11418;48.118;9.992;2023-04-16T13:34:15;8.90;99.90
22503;DHT22;11418;48.118;9.992;2023-04-16T13:38:16;9.00;99.90
22503;DHT22;11418;48.118;9.992;2023-04-16T13:42:16;9.10;99.90
22503;DHT22;11418;48.118;9.992;2023-04-16T13:46:17;9.00;99.90
22503;DHT22;11418;48.118;9.992;2023-04-16T13:50:18;9.10;99.90
22503;DHT22;11418;48.118;9.992;2023-04-16T13:54:18;9.20;99.90
22503;DHT22;11418;48.118;9.992;2023-04-16T13:58:19;8.90;99.90
22503;DHT22;11418;48.118;9.992;2023-04-16T14:02:19;8.80;99.90
22503;DHT22;11418;48.118;9.992;2023-04-16T14:06:20;8.90;99.90
22503;DHT22;11418;48.118;9.992;2023-04-16T14:10:21;9.00;99.90
22503;DHT22;11418;48.118;9.992;2023-04-16T14:14:21;9.00;99.90
22503;DHT22;11418;48.118;9.992;2023-04-16T14:18:22;9.00;99.90
22503;DHT22;11418;48.118;9.992;2023-04-16T14:22:22;9.00;99.90
22503;DHT22;11418;48.118;9.992;2023-04-16T14:26:23;9.10;99.90
22503;DHT22;11418;48.118;9.992;2023-04-16T14:30:23;9.30;99.90
22503;DHT22;11418;48.118;9.992;2023-04-16T14:34:24;9.40;99.90
22503;DHT22;11418;48.118;9.992;2023-04-16T14:38:25;9.30;99.90
22503;DHT22;11418;48.118;9.992;2023-04-16T14:42:25;9.10;99.90
22503;DHT22;11418;48.118;9.992;2023-04-16T14:46:26;8.80;99.90
22503;DHT22;11418;48.118;9.992;2023-04-16T14:50:26;8.80;99.90
22503;DHT22;11418;48.118;9.992;2023-04-16T14:54:27;8.70;99.90
22503;DHT22;11418;48.118;9.992;2023-04-16T14:58:27;8.80;99.90
22503;DHT22;11418;48.118;9.992;2023-04-16T15:02:28;9.00;99.90
22503;DHT22;11418;48.118;9.992;2023-04-16T15:06:28;9.00;99.90
22503;DHT22;11418;48.118;9.992;2023-04-16T15:10:29;8.70;99.90
22503;DHT22;11418;48.118;9.992;2023-04-16T15:14:29;8.70;99.90
22503;DHT22;11418;48.118;9.992;2023-04-16T15:18:30;8.70;99.90
22503;DHT22;11418;48.118;9.992;2023-04-16T15:22:31;8.60;99.90
22503;DHT22;11418;48.118;9.992;2023-04-16T15:26:31;8.60;99.90
22503;DHT22;11418;48.118;9.992;2023-04-16T15:30:33;8.60;99.90
22503;DHT22;11418;48.118;9.992;2023-04-16T15:34:34;8.60;99.90
22503;DHT22;11418;48.118;9.992;2023-04-16T15:38:34;8.50;99.90
22503;DHT22;11418;48.118;9.992;2023-04-16T15:42:35;8.60;99.90
22503;DHT22;11418;48.118;9.992;2023-04-16T15:46:35;8.70;99.90
22503;DHT22;11418;48.118;9.992;2023-04-16T15:50:36;8.70;99.90
22503;DHT22;11418;48.118;9.992;2023-04-16T15:54:36;8.70;99.90
22503;DHT22;11418;48.118;9.992;2023-04-16T15:58:37;8.80;99.90
22503;DHT22;11418;48.118;9.992;2023-04-16T16:02:41;8.70;99.90
22503;DHT22;11418;48.118;9.992;2023-04-16T16:06:41;8.80;99.90
22503;DHT22;11418;48.118;9.992;2023-04-16T16:10:42;8.90;99.90
22503;DHT22;11418;48.118;9.992;2023-04-16T16:14:43;8.70;99.90
22503;DHT22;11418;48.118;9.992;2023-04-16T16:18:43;8.60;99.90
22503;DHT22;11418;48.118;9.992;2023-04-16T16:22:44;8.60;99.90
22503;DHT22;11418;48.118;9.992;2023-04-16T16:26:46;8.60;99.90
22503;DHT22;11418;48.118;9.992;2023-04-16T16:30:47;8.60;99.90
22503;DHT22;11418;48.118;9.992;2023-04-16T16:34:47;8.80;99.90
22503;DHT22;11418;48.118;9.992;2023-04-16T16:38:47;8.80;99.90
22503;DHT22;11418;48.118;9.992;2023-04-16T16:42:48;8.70;99.90
22503;DHT22;11418;48.118;9.992;2023-04-16T16:46:49;8.60;99.90
22503;DHT22;11418;48.118;9.992;2023-04-16T16:50:49;8.70;99.90
22503;DHT22;11418;48.118;9.992;2023-04-16T16:54:51;8.70;99.90
22503;DHT22;11418;48.118;9.992;2023-04-16T16:58:52;8.60;99.90
22503;DHT22;11418;48.118;9.992;2023-04-16T17:02:53;8.40;99.90
22503;DHT22;11418;48.118;9.992;2023-04-16T17:06:53;8.50;99.90
22503;DHT22;11418;48.118;9.992;2023-04-16T17:10:53;8.50;99.90
22503;DHT22;11418;48.118;9.992;2023-04-16T17:14:54;8.40;99.90
22503;DHT22;11418;48.118;9.992;2023-04-16T17:18:55;8.40;99.90
22503;DHT22;11418;48.118;9.992;2023-04-16T17:22:56;8.40;99.90
22503;DHT22;11418;48.118;9.992;2023-04-16T17:26:57;8.30;99.90
22503;DHT22;11418;48.118;9.992;2023-04-16T17:30:57;8.40;99.90
22503;DHT22;11418;48.118;9.992;2023-04-16T17:34:59;8.20;99.90
22503;DHT22;11418;48.118;9.992;2023-04-16T17:38:59;8.00;99.90
22503;DHT22;11418;48.118;9.992;2023-04-16T17:43:00;8.30;99.90
22503;DHT22;11418;48.118;9.992;2023-04-16T17:47:00;8.20;99.90
22503;DHT22;11418;48.118;9.992;2023-04-16T17:51:07;8.30;99.90
22503;DHT22;11418;48.118;9.992;2023-04-16T17:55:09;8.20;99.90
22503;DHT22;11418;48.118;9.992;2023-04-16T17:59:10;8.20;99.90
22503;DHT22;11418;48.118;9.992;2023-04-16T18:03:11;8.20;99.90
22503;DHT22;11418;48.118;9.992;2023-04-16T18:07:13;8.10;99.90
22503;DHT22;11418;48.118;9.992;2023-04-16T18:11:13;8.10;99.90
22503;DHT22;11418;48.118;9.992;2023-04-16T18:15:14;8.00;99.90
22503;DHT22;11418;48.118;9.992;2023-04-16T18:19:14;7.90;99.90
22503;DHT22;11418;48.118;9.992;2023-04-16T18:23:15;7.90;99.90
22503;DHT22;11418;48.118;9.992;2023-04-16T18:27:16;7.90;99.90
22503;DHT22;11418;48.118;9.992;2023-04-16T18:31:16;8.00;99.90
22503;DHT22;11418;48.118;9.992;2023-04-16T18:35:16;8.10;99.90
22503;DHT22;11418;48.118;9.992;2023-04-16T18:39:17;7.90;99.90
22503;DHT22;11418;48.118;9.992;2023-04-16T18:43:17;8.00;99.90
22503;DHT22;11418;48.118;9.992;2023-04-16T18:47:18;8.00;99.90
22503;DHT22;11418;48.118;9.992;2023-04-16T18:51:18;8.00;99.90
22503;DHT22;11418;48.118;9.992;2023-04-16T18:55:19;7.70;99.90
22503;DHT22;11418;48.118;9.992;2023-04-16T18:59:19;7.80;99.90
22503;DHT22;11418;48.118;9.992;2023-04-16T19:03:20;7.90;99.90
22503;DHT22;11418;48.118;9.992;2023-04-16T19:07:21;8.10;99.90
22503;DHT22;11418;48.118;9.992;2023-04-16T19:11:21;7.90;99.90
22503;DHT22;11418;48.118;9.992;2023-04-16T19:15:22;8.10;99.90
22503;DHT22;11418;48.118;9.992;2023-04-16T19:19:22;8.10;99.90
22503;DHT22;11418;48.118;9.992;2023-04-16T19:23:23;8.10;99.90
22503;DHT22;11418;48.118;9.992;2023-04-16T19:27:23;7.90;99.90
22503;DHT22;11418;48.118;9.992;2023-04-16T19:31:24;7.90;99.90
22503;DHT22;11418;48.118;9.992;2023-04-16T19:35:25;7.80;99.90
22503;DHT22;11418;48.118;9.992;2023-04-16T19:39:26;8.10;99.90
22503;DHT22;11418;48.118;9.992;2023-04-16T19:43:30;8.10;99.90
22503;DHT22;11418;48.118;9.992;2023-04-16T19:47:31;8.20;99.90
22503;DHT22;11418;48.118;9.992;2023-04-16T19:51:31;8.00;99.90
22503;DHT22;11418;48.118;9.992;2023-04-16T19:55:32;8.10;99.90
22503;DHT22;11418;48.118;9.992;2023-04-16T19:59:32;8.20;99.90
22503;DHT22;11418;48.118;9.992;2023-04-16T20:03:33;8.10;99.90
22503;DHT22;11418;48.118;9.992;2023-04-16T20:07:33;8.00;99.90
22503;DHT22;11418;48.118;9.992;2023-04-16T20:11:34;8.10;99.90
22503;DHT22;11418;48.118;9.992;2023-04-16T20:15:34;7.90;99.90
22503;DHT22;11418;48.118;9.992;2023-04-16T20:19:35;8.10;99.90
22503;DHT22;11418;48.118;9.992;2023-04-16T20:23:37;8.00;99.90
22503;DHT22;11418;48.118;9.992;2023-04-16T20:27:37;8.00;99.90
22503;DHT22;11418;48.118;9.992;2023-04-16T20:31:38;8.00;99.90
22503;DHT22;11418;48.118;9.992;2023-04-16T20:35:40;8.00;99.90
22503;DHT22;11418;48.118;9.992;2023-04-16T20:39:41;7.90;99.90
22503;DHT22;11418;48.118;9.992;2023-04-16T20:43:41;7.80;99.90
22503;DHT22;11418;48.118;9.992;2023-04-16T20:47:43;7.90;99.90
22503;DHT22;11418;48.118;9.992;2023-04-16T20:51:43;7.90;99.90
22503;DHT22;11418;48.118;9.992;2023-04-16T20:55:44;7.70;99.90
22503;DHT22;11418;48.118;9.992;2023-04-16T20:59:44;7.70;99.90
22503;DHT22;11418;48.118;9.992;2023-04-16T21:03:45;8.00;99.90
22503;DHT22;11418;48.118;9.992;2023-04-16T21:07:45;8.00;99.90
22503;DHT22;11418;48.118;9.992;2023-04-16T21:11:46;7.80;99.90
22503;DHT22;11418;48.118;9.992;2023-04-16T21:15:46;8.00;99.90
22503;DHT22;11418;48.118;9.992;2023-04-16T21:19:47;8.00;99.90
22503;DHT22;11418;48.118;9.992;2023-04-16T21:23:48;8.00;99.90
22503;DHT22;11418;48.118;9.992;2023-04-16T21:27:49;8.10;99.90
22503;DHT22;11418;48.118;9.992;2023-04-16T21:31:49;7.90;99.90
22503;DHT22;11418;48.118;9.992;2023-04-16T21:35:51;8.00;99.90
22503;DHT22;11418;48.118;9.992;2023-04-16T21:39:52;7.90;99.90
22503;DHT22;11418;48.118;9.992;2023-04-16T21:43:52;7.80;99.90
22503;DHT22;11418;48.118;9.992;2023-04-16T21:47:53;7.70;99.90
22503;DHT22;11418;48.118;9.992;2023-04-16T21:51:53;7.80;99.90
22503;DHT22;11418;48.118;9.992;2023-04-16T21:55:58;7.90;99.90
22503;DHT22;11418;48.118;9.992;2023-04-16T21:59:58;7.90;99.90
22503;DHT22;11418;48.118;9.992;2023-04-16T22:03:59;8.00;99.90
22503;DHT22;11418;48.118;9.992;2023-04-16T22:08:01;8.00;99.90
22503;DHT22;11418;48.118;9.992;2023-04-16T22:12:01;7.80;99.90
22503;DHT22;11418;48.118;9.992;2023-04-16T22:16:02;8.00;99.90
22503;DHT22;11418;48.118;9.992;2023-04-16T22:20:03;7.80;99.90
22503;DHT22;11418;48.118;9.992;2023-04-16T22:24:08;7.90;99.90
22503;DHT22;11418;48.118;9.992;2023-04-16T22:28:08;8.00;99.90
22503;DHT22;11418;48.118;9.992;2023-04-16T22:32:09;7.90;99.90
22503;DHT22;11418;48.118;9.992;2023-04-16T22:36:09;8.00;99.90
22503;DHT22;11418;48.118;9.992;2023-04-16T22:40:10;8.20;99.90
22503;DHT22;11418;48.118;9.992;2023-04-16T22:44:11;8.30;99.90
22503;DHT22;11418;48.118;9.992;2023-04-16T22:48:11;8.30;99.90
22503;DHT22;11418;48.118;9.992;2023-04-16T22:52:11;8.10;99.90
22503;DHT22;11418;48.118;9.992;2023-04-16T22:56:12;8.10;99.90
22503;DHT22;11418;48.118;9.992;2023-04-16T23:00:13;8.00;99.90
22503;DHT22;11418;48.118;9.992;2023-04-16T23:04:16;8.10;99.90
22503;DHT22;11418;48.118;9.992;2023-04-16T23:08:17;8.20;99.90
22503;DHT22;11418;48.118;9.992;2023-04-16T23:12:17;8.20;99.90
22503;DHT22;11418;48.118;9.992;2023-04-16T23:16:18;8.10;99.90
22503;DHT22;11418;48.118;9.992;2023-04-16T23:20:18;8.00;99.90
22503;DHT22;11418;48.118;9.992;2023-04-16T23:24:18;7.90;99.90
22503;DHT22;11418;48.118;9.992;2023-04-16T23:28:19;7.90;99.90
22503;DHT22;11418;48.118;9.992;2023-04-16T23:32:20;8.20;99.90
22503;DHT22;11418;48.118;9.992;2023-04-16T23:36:21;8.20;99.90
22503;DHT22;11418;48.118;9.992;2023-04-16T23:40:21;8.10;99.90
22503;DHT22;11418;48.118;9.992;2023-04-16T23:44:22;8.00;99.90
22503;DHT22;11418;48.118;9.992;2023-04-16T23:48:22;8.00;99.90
22503;DHT22;11418;48.118;9.992;2023-04-16T23:52:23;8.00;99.90
22503;DHT22;11418;48.118;9.992;2023-04-16T23:56:23;8.00;99.90
